• Join FlightAware (Why Join?)
  • Login
  • US Flag 
05:02PM EDT


 

Airport Tracker/Info


-or-


 

Live Flight TrackerFlight Track Log ✈ CTL16 ✈ 10-May-2013 ✈ KHAO - KBKL

Flight Track Log - Related Links

Times and Time Zones

All times are in EDT time to prevent confusion due to time zone crossing. See the CTL16 flight status page for this flight to view local times or setup timezone preferences in your user account.

Time Position Orientation Groundspeed Altitude Reporting Facility
EDT Latitude Longitude Course Direction KTS MPH feet Rate Location/Type
08:44PM 39.3500 -84.4833 90° East 121 139 1,200  Level Cincinnati TRACON
08:45PM 39.3500 -84.4333 90° East 129 148 2,400 1,080 Climbing Cincinnati TRACON
08:45PM 39.3567 -84.4156 64° Northeast 135 155 3,100 900 Climbing Indianapolis Center
08:46PM 39.3639 -84.4031 53° Northeast 140 161 3,400 960 Climbing Indianapolis Center
08:47PM 39.3917 -84.3717 41° Northeast 133 153 4,400 840 Climbing Indianapolis Center
08:48PM 39.4214 -84.3406 39° Northeast 136 157 5,200 780 Climbing Indianapolis Center
08:49PM 39.4517 -84.3014 45° Northeast 142 163 6,100 780 Climbing Indianapolis Center
08:50PM 39.4817 -84.2675 41° Northeast 137 158 6,900 420 Climbing Indianapolis Center
08:51PM 39.5139 -84.2311 41° Northeast 155 178 7,000  Climbing Indianapolis Center
08:52PM 39.5508 -84.1900 41° Northeast 181 208 7,000 -60 Level Indianapolis Center
08:53PM 39.5894 -84.1492 39° Northeast 182 209 6,900  Descending Indianapolis Center
08:54PM 39.6306 -84.1058 39° Northeast 179 206 7,000  Climbing Indianapolis Center
08:55PM 39.6678 -84.0617 42° Northeast 182 209 7,000  Level Indianapolis Center
08:56PM 39.7067 -84.0181 41° Northeast 183 211 7,000 -60 Level Indianapolis Center
08:57PM 39.7439 -83.9714 44° Northeast 188 216 6,900 -60 Descending Indianapolis Center
08:58PM 39.7833 -83.9217 44° Northeast 185 213 6,900  Level Indianapolis Center
08:59PM 39.8208 -83.8783 42° Northeast 183 211 6,900  Level Indianapolis Center
09:00PM 39.8586 -83.8342 42° Northeast 180 207 6,900  Level Indianapolis Center
09:01PM 39.8967 -83.7897 42° Northeast 181 208 6,900  Level Indianapolis Center
09:02PM 39.9353 -83.7425 43° Northeast 184 212 6,900  Level Indianapolis Center
09:03PM 39.9783 -83.6967 39° Northeast 182 209 6,900  Level Indianapolis Center
09:04PM 40.0150 -83.6522 43° Northeast 183 211 7,000  Climbing Indianapolis Center
09:05PM 40.0514 -83.6097 42° Northeast 182 209 7,000 -60 Level Indianapolis Center
09:06PM 40.0906 -83.5636 42° Northeast 184 212 6,900  Descending Indianapolis Center
09:07PM 40.1275 -83.5189 43° Northeast 182 209 7,000  Climbing Indianapolis Center
09:08PM 40.1661 -83.4747 41° Northeast 182 209 7,000  Level Indianapolis Center
09:09PM 40.2036 -83.4275 44° Northeast 184 212 7,000 -60 Level Indianapolis Center
09:10PM 40.2408 -83.3836 42° Northeast 180 207 6,900  Descending Indianapolis Center
09:11PM 40.2783 -83.3392 42° Northeast 180 207 7,000  Climbing Indianapolis Center
09:12PM 40.3161 -83.2944 42° Northeast 181 208 7,000  Level Indianapolis Center
09:13PM 40.3539 -83.2469 44° Northeast 184 212 7,000  Level Indianapolis Center
09:14PM 40.3925 -83.2033 41° Northeast 182 209 7,000  Level Indianapolis Center
09:15PM 40.4306 -83.1561 43° Northeast 184 212 7,000 -60 Level Indianapolis Center
09:16PM 40.4736 -83.1017 44° Northeast 183 211 6,900  Descending Indianapolis Center
09:17PM 40.5122 -83.0564 42° Northeast 184 212 7,000  Climbing Indianapolis Center
09:18PM 40.5478 -83.0161 41° Northeast 183 211 7,000  Level Indianapolis Center
09:19PM 40.5839 -82.9697 44° Northeast 180 207 7,000  Level Indianapolis Center
09:20PM 40.6217 -82.9247 42° Northeast 181 208 7,000  Level Indianapolis Center
09:21PM 40.6606 -82.8803 41° Northeast 183 211 7,000  Level Indianapolis Center
09:22PM 40.6958 -82.8294 48° Northeast 185 213 7,000 -180 Level Indianapolis Center
09:23PM 40.7356 -82.7831 41° Northeast 188 216 6,700 -480 Descending Indianapolis Center
09:25PM 40.7828 -82.7203 45° Northeast 203 234 6,100 -540 Descending Indianapolis Center
09:26PM 40.8247 -82.6689 43° Northeast 203 234 5,700 -420 Descending Indianapolis Center
09:26PM 40.8361 -82.6578 36° Northeast 203 234 5,600 -420 Descending Cleveland Center
09:27PM 40.8856 -82.5825 49° Northeast 205 236 5,100 -420 Descending Cleveland Center